• Join FlightAware (Why Join?)
  • Login
  • US Flag 
03:52AM EST


 

Airport Tracker/Info


-or-


 

Live Flight TrackerFlight Track Log ✈ KAL1332 ✈ 18-Jul-2013 ✈ RKJY / RSU - RKSS / GMP

Flight Track Log - Related Links

Times and Time Zones

All times are in EDT time to prevent confusion due to time zone crossing. See the KAL1332 flight status page for this flight to view local times or setup timezone preferences in your user account.

Time Position Orientation Groundspeed Altitude Reporting Facility
EDT Latitude Longitude Course Direction KTS MPH feet Rate Location/Type
08:04PM 35.1037 127.5378 346° North  Level Estimated
08:05PM 35.1917 127.5118 346° North  Level Estimated
08:06PM 35.2796 127.4858 346° North  Level Estimated
08:07PM 35.3675 127.4598 346° North  Level Estimated
08:08PM 35.4555 127.4336 346° North  Level Estimated
08:09PM 35.5434 127.4074 346° North  Level Estimated
08:10PM 35.6313 127.3812 346° North  Level Estimated
08:11PM 35.7192 127.3549 346° North  Level Estimated
08:12PM 35.8072 127.3286 346° North  Level Estimated
08:13PM 35.8951 127.3021 346° North  Level Estimated
08:14PM 35.9830 127.2757 346° North  Level Estimated
08:15PM 36.0709 127.2491 346° North  Level Estimated
08:16PM 36.1588 127.2225 346° North  Level Estimated
08:17PM 36.2466 127.1959 346° North  Level Estimated
08:18PM 36.3345 127.1692 346° North  Level Estimated
08:19PM 36.4224 127.1424 346° North  Level Estimated
08:20PM 36.5103 127.1156 346° North  Level Estimated
08:21PM 36.5981 127.0887 346° North  Level Estimated
08:22PM 36.6860 127.0617 346° North  Level Estimated
08:23PM 36.7738 127.0347 346° North  Level Estimated
08:24PM 36.8617 127.0076 346° North  Level Estimated
08:25PM 36.9495 126.9805 346° North  Level Estimated
08:26PM 37.0373 126.9533 346° North  Level Estimated
08:27PM 37.1251 126.9260 346° North  Level Estimated
08:28PM 37.2130 126.8987 346° North  Level Estimated
08:29PM 37.3008 126.8713 346° North  Level Estimated
08:30PM 37.3886 126.8438 346° North  Level Estimated
08:31PM 37.4764 126.8163 346° North  Level Estimated
08:32PM 37.5583 126.7906 346° North  Level Estimated
08:33PM 37.5583 126.7906 288° West  Level Estimated
08:34PM 37.5583 126.7906 288° West  Level Estimated
08:35PM 37.5583 126.7906 288° West  Level Estimated
08:36PM 37.5583 126.7906 288° West  Level Estimated
08:37PM 37.5583 126.7906 288° West  Level Estimated
08:38PM 37.5583 126.7906 288° West  Level Estimated
08:39PM 37.5583 126.7906 288° West  Level Estimated
08:40PM 37.5583 126.7906 288° West  Level Estimated
08:41PM 37.5583 126.7906 288° West  Level Estimated
08:42PM 37.5583 126.7906 288° West  Level Estimated
08:43PM 37.5583 126.7906 288° West  Level Estimated
08:44PM 37.5583 126.7906 288° West  Level Estimated
08:45PM 37.5583 126.7906 288° West  Level Estimated
08:46PM 37.5583 126.7906 288° West  Level Estimated
08:47PM 37.5583 126.7906 288° West  Level Estimated
08:48PM 37.5583 126.7906 288° West  Level Estimated